Time;durP1;ratioP1;P1;durP2;ratioP2;P2;SDS_P1;SDS_P2;PMS_P1;PMS_P2;Temp;Humidity;BMP_temperature;BMP_pressure;BME280_temperature;BME280_humidity;BME280_pressure;Samples;Min_cycle;Max_cycle;Signal;HPM_P1;HPM_P2
2023/03/11 00:01:02;;;;;;;0.90;0.57;;;6.30;99.90;;;;;;5076092;28;20471;-77
2023/03/11 00:03:29;;;;;;;1.83;0.63;;;6.50;99.90;;;;;;5079006;28;20483;-77
2023/03/11 00:05:57;;;;;;;1.83;1.30;;;6.60;99.90;;;;;;5079185;28;20520;-77
2023/03/11 00:08:25;;;;;;;1.97;1.10;;;5.90;99.90;;;;;;5075492;28;20453;-78
2023/03/11 00:10:55;;;;;;;3.03;1.10;;;6.00;99.90;;;;;;5077684;28;20960;-77
2023/03/11 00:13:22;;;;;;;1.60;1.33;;;6.20;99.90;;;;;;5078343;28;20437;-77
2023/03/11 00:15:54;;;;;;;2.70;1.03;;;6.30;99.90;;;;;;5079342;28;20478;-76
2023/03/11 00:18:25;;;;;;;2.60;1.30;;;6.50;99.90;;;;;;5080860;28;20483;-77
2023/03/11 00:20:53;;;;;;;0.90;0.70;;;6.40;99.90;;;;;;5079273;28;20444;-77
2023/03/11 00:23:20;;;;;;;1.37;0.60;;;6.60;99.90;;;;;;5076450;28;21016;-77
2023/03/11 00:25:47;;;;;;;1.23;0.90;;;6.60;99.90;;;;;;5080090;28;20468;-77
2023/03/11 00:28:15;;;;;;;1.00;0.60;;;6.80;99.90;;;;;;5079331;28;21012;-77
2023/03/11 00:30:43;;;;;;;1.73;1.03;;;6.70;99.90;;;;;;5077445;28;20886;-76
2023/03/11 00:33:13;;;;;;;0.90;0.70;;;6.30;99.90;;;;;;5078008;28;20526;-76
2023/03/11 00:35:41;;;;;;;1.17;0.70;;;6.30;99.90;;;;;;5075404;28;20532;-76
2023/03/11 00:38:11;;;;;;;0.90;0.50;;;6.30;99.90;;;;;;5077470;28;21063;-76
2023/03/11 00:40:39;;;;;;;1.20;0.60;;;6.00;99.90;;;;;;5079230;28;20446;-76
2023/03/11 00:43:06;;;;;;;1.07;0.60;;;6.00;99.90;;;;;;5086881;22;20556;-49
2023/03/11 00:45:33;;;;;;;1.30;0.60;;;6.00;99.90;;;;;;5104613;28;20873;-49
2023/03/11 00:48:00;;;;;;;1.00;0.60;;;6.00;99.90;;;;;;5102287;28;20873;-50
2023/03/11 00:50:31;;;;;;;0.90;0.63;;;5.90;99.90;;;;;;5081344;28;20516;-49
2023/03/11 00:52:58;;;;;;;0.90;0.60;;;5.90;99.90;;;;;;5074835;28;20998;-49
2023/03/11 00:55:33;;;;;;;0.97;0.60;;;6.00;99.90;;;;;;5070179;28;20523;-55
2023/03/11 00:58:02;;;;;;;1.00;0.60;;;5.90;99.90;;;;;;5074875;28;20517;-53
2023/03/11 01:00:30;;;;;;;0.80;0.40;;;5.90;99.90;;;;;;5073787;28;20451;-49
2023/03/11 01:02:59;;;;;;;0.80;0.40;;;5.80;99.90;;;;;;5055739;28;20476;-51
2023/03/11 01:05:30;;;;;;;1.10;0.60;;;5.80;99.90;;;;;;5054569;28;20539;-50
2023/03/11 01:07:57;;;;;;;1.67;0.50;;;5.80;99.90;;;;;;5054742;28;20469;-51
2023/03/11 01:10:24;;;;;;;1.73;0.80;;;5.80;99.90;;;;;;5054439;28;20479;-49
2023/03/11 01:12:51;;;;;;;0.80;0.50;;;5.90;99.90;;;;;;5053646;28;20492;-51
2023/03/11 01:15:20;;;;;;;0.90;0.60;;;5.90;99.90;;;;;;5054757;28;20523;-50
2023/03/11 01:17:47;;;;;;;1.10;0.60;;;5.90;99.90;;;;;;5054535;28;20471;-52
2023/03/11 01:20:15;;;;;;;1.00;0.50;;;5.80;99.90;;;;;;5062259;28;20530;-49
2023/03/11 01:22:43;;;;;;;0.90;0.53;;;5.80;99.90;;;;;;5072416;28;20550;-50
2023/03/11 01:25:12;;;;;;;0.93;0.57;;;5.80;99.90;;;;;;5055867;28;20495;-49
2023/03/11 01:27:39;;;;;;;0.90;0.50;;;5.70;99.90;;;;;;5054049;28;20997;-49
2023/03/11 01:30:07;;;;;;;1.40;0.57;;;5.70;99.90;;;;;;5054161;28;20499;-50
2023/03/11 01:32:34;;;;;;;0.90;0.60;;;5.70;99.90;;;;;;5054207;28;20437;-50
2023/03/11 01:35:01;;;;;;;0.90;0.63;;;5.70;99.90;;;;;;5054016;28;20480;-49
2023/03/11 01:37:28;;;;;;;0.80;0.50;;;5.70;99.90;;;;;;5052868;28;20537;-51
2023/03/11 01:39:56;;;;;;;0.90;0.60;;;5.70;99.90;;;;;;5054141;28;20570;-51
2023/03/11 01:42:23;;;;;;;0.90;0.60;;;5.50;99.90;;;;;;5062030;28;20495;-49
2023/03/11 01:44:50;;;;;;;0.90;0.50;;;5.60;99.90;;;;;;5054728;28;20532;-49
2023/03/11 01:47:38;;;;;;;0.90;0.40;;;5.70;99.90;;;;;;5058314;28;20543;-50
2023/03/11 01:50:10;;;;;;;0.90;0.50;;;5.80;99.90;;;;;;5058365;28;20475;-50
2023/03/11 01:52:38;;;;;;;1.53;0.40;;;5.70;99.90;;;;;;5059867;28;20448;-49
2023/03/11 01:55:07;;;;;;;0.83;0.57;;;5.60;99.90;;;;;;5058913;28;20702;-50
2023/03/11 01:57:36;;;;;;;1.07;0.63;;;5.90;99.90;;;;;;5053881;28;20473;-49
2023/03/11 02:00:08;;;;;;;1.00;0.50;;;5.80;99.90;;;;;;5060070;28;20708;-49
2023/03/11 02:02:40;;;;;;;2.23;0.50;;;5.60;99.90;;;;;;5073963;28;21028;-49
2023/03/11 02:05:07;;;;;;;0.90;0.50;;;5.60;99.90;;;;;;5073745;28;20519;-49
2023/03/11 02:07:34;;;;;;;1.10;0.43;;;5.50;99.90;;;;;;5073713;28;20955;-49
2023/03/11 02:10:01;;;;;;;0.83;0.37;;;5.60;99.90;;;;;;5072598;28;21032;-50
2023/03/11 02:12:33;;;;;;;0.90;0.40;;;5.50;99.90;;;;;;5073187;28;20547;-48
2023/03/11 02:15:01;;;;;;;0.90;0.60;;;5.50;99.90;;;;;;5073048;28;20537;-50
2023/03/11 02:17:30;;;;;;;1.07;0.60;;;5.30;99.90;;;;;;5073246;28;20539;-52
2023/03/11 02:20:12;;;;;;;1.57;0.70;;;5.20;99.90;;;;;;5073135;28;20577;-50
2023/03/11 02:22:41;;;;;;;0.90;0.60;;;5.10;99.90;;;;;;5073080;28;20496;-48
2023/03/11 02:25:16;;;;;;;1.30;0.80;;;5.00;99.90;;;;;;5053906;28;20870;-48
2023/03/11 02:27:48;;;;;;;2.23;0.70;;;5.00;99.90;;;;;;5053117;28;20518;-49
2023/03/11 02:30:17;;;;;;;1.10;0.70;;;5.00;99.90;;;;;;5053282;28;20529;-50
2023/03/11 02:32:47;;;;;;;1.20;0.70;;;4.80;99.90;;;;;;5055285;28;20543;-50
2023/03/11 02:35:14;;;;;;;1.03;0.70;;;4.80;99.90;;;;;;5072797;28;20452;-50
2023/03/11 02:37:46;;;;;;;1.00;0.80;;;4.80;99.90;;;;;;5073290;28;20478;-50
2023/03/11 02:40:36;;;;;;;1.30;0.57;;;4.70;99.90;;;;;;5072248;28;20475;-49
2023/03/11 02:43:07;;;;;;;0.90;0.60;;;4.60;99.90;;;;;;5072469;28;20545;-50
2023/03/11 02:45:35;;;;;;;0.90;0.70;;;4.40;99.90;;;;;;5072669;28;20530;-49
2023/03/11 02:48:03;;;;;;;1.10;0.80;;;4.40;99.90;;;;;;5071922;28;20482;-49
2023/03/11 02:50:33;;;;;;;0.97;0.60;;;4.30;99.90;;;;;;5072454;28;20438;-50
2023/03/11 02:53:00;;;;;;;1.00;0.63;;;4.30;99.90;;;;;;5053056;28;20480;-48
2023/03/11 02:55:27;;;;;;;1.00;0.60;;;4.20;99.90;;;;;;5052374;28;20474;-50
2023/03/11 02:57:54;;;;;;;0.90;0.60;;;4.20;99.90;;;;;;5052322;28;20487;-51
2023/03/11 03:00:22;;;;;;;1.10;0.70;;;4.20;99.90;;;;;;5052905;28;21024;-50
2023/03/11 03:02:51;;;;;;;1.00;0.70;;;4.20;99.90;;;;;;5052218;28;20450;-49
2023/03/11 03:05:19;;;;;;;0.90;0.60;;;4.10;99.90;;;;;;5052699;28;20493;-48
2023/03/11 03:07:46;;;;;;;1.10;0.70;;;4.10;99.90;;;;;;5070261;28;20452;-48
2023/03/11 03:10:15;;;;;;;0.90;0.70;;;4.10;99.90;;;;;;5072196;28;20473;-48
2023/03/11 03:12:41;;;;;;;1.07;0.60;;;4.20;99.90;;;;;;5072031;28;20447;-48
2023/03/11 03:15:10;;;;;;;1.40;0.67;;;4.20;99.90;;;;;;5072156;28;20533;-52
2023/03/11 03:17:38;;;;;;;0.90;0.67;;;4.30;99.90;;;;;;5072245;28;20441;-51
2023/03/11 03:20:10;;;;;;;0.90;0.60;;;4.40;99.90;;;;;;5072228;28;20517;-49
2023/03/11 03:22:37;;;;;;;1.10;0.67;;;4.40;99.90;;;;;;5071314;28;20451;-49
2023/03/11 03:25:05;;;;;;;1.10;0.70;;;4.30;99.90;;;;;;5059690;28;20538;-49
2023/03/11 03:27:33;;;;;;;0.90;0.57;;;4.20;99.90;;;;;;5051654;28;20529;-49
2023/03/11 03:30:00;;;;;;;1.10;0.60;;;4.20;99.90;;;;;;5051856;28;20550;-49
2023/03/11 03:32:27;;;;;;;1.00;0.70;;;4.20;99.90;;;;;;5052083;28;20530;-48
2023/03/11 03:34:57;;;;;;;0.90;0.80;;;4.10;99.90;;;;;;5067063;28;20497;-49
2023/03/11 03:37:25;;;;;;;0.90;0.77;;;4.00;99.90;;;;;;5071733;28;21030;-49
2023/03/11 03:39:52;;;;;;;1.50;0.70;;;4.10;99.90;;;;;;5061040;28;20751;-50
2023/03/11 03:42:19;;;;;;;0.97;0.77;;;4.00;99.90;;;;;;5051571;28;20541;-49
2023/03/11 03:44:46;;;;;;;1.33;0.73;;;4.00;99.90;;;;;;5052022;28;20490;-51
2023/03/11 03:47:13;;;;;;;0.97;0.80;;;4.00;99.90;;;;;;5050640;28;20952;-48
2023/03/11 03:49:40;;;;;;;1.03;0.60;;;4.00;99.90;;;;;;5048936;28;20558;-51
2023/03/11 03:52:09;;;;;;;1.00;0.70;;;3.80;99.90;;;;;;5049236;28;20502;-49
2023/03/11 03:54:36;;;;;;;1.30;0.70;;;3.80;99.90;;;;;;5050058;28;20450;-50
2023/03/11 03:57:03;;;;;;;0.97;0.70;;;3.80;99.90;;;;;;5049452;28;20500;-51
2023/03/11 03:59:30;;;;;;;1.13;0.90;;;3.80;99.90;;;;;;5049122;28;20925;-49
2023/03/11 04:01:57;;;;;;;1.17;0.73;;;3.80;99.90;;;;;;5049768;28;20508;-50
2023/03/11 04:04:24;;;;;;;1.10;0.83;;;3.80;99.90;;;;;;5051098;28;20511;-49
2023/03/11 04:06:51;;;;;;;1.00;0.80;;;3.80;99.90;;;;;;5051412;28;20565;-51
2023/03/11 04:09:20;;;;;;;1.17;0.60;;;3.90;99.90;;;;;;5050919;28;20505;-48
2023/03/11 04:11:47;;;;;;;0.90;0.70;;;3.70;99.90;;;;;;5051052;28;20939;-49
2023/03/11 04:14:13;;;;;;;1.30;0.90;;;3.80;99.90;;;;;;5059961;28;20544;-49
2023/03/11 04:16:40;;;;;;;1.43;1.10;;;3.70;99.90;;;;;;5052826;28;20453;-50
2023/03/11 04:19:07;;;;;;;1.10;0.80;;;3.80;99.90;;;;;;5053498;28;20574;-49
2023/03/11 04:21:34;;;;;;;1.07;0.83;;;3.90;99.90;;;;;;5069150;28;20480;-50
2023/03/11 04:24:01;;;;;;;1.77;0.80;;;3.80;99.90;;;;;;5055057;28;20474;-49
2023/03/11 04:26:29;;;;;;;1.57;1.00;;;3.70;99.90;;;;;;5067177;28;20690;-50
2023/03/11 04:28:57;;;;;;;1.07;0.90;;;3.70;99.90;;;;;;5071232;28;20490;-50
2023/03/11 04:31:23;;;;;;;1.10;0.90;;;3.70;99.90;;;;;;5070912;28;21018;-49
2023/03/11 04:33:50;;;;;;;0.90;0.77;;;3.70;99.90;;;;;;5070979;28;20484;-50
2023/03/11 04:36:17;;;;;;;1.40;0.90;;;3.70;99.90;;;;;;5071122;28;20523;-49
2023/03/11 04:38:45;;;;;;;0.90;0.63;;;3.70;99.90;;;;;;5064143;28;20575;-50
2023/03/11 04:41:12;;;;;;;0.90;0.70;;;3.60;99.90;;;;;;5050837;28;20481;-49
2023/03/11 04:43:40;;;;;;;1.10;0.73;;;3.60;99.90;;;;;;5050702;28;20544;-49
2023/03/11 04:46:07;;;;;;;1.10;0.77;;;3.60;99.90;;;;;;5050865;28;20493;-50
2023/03/11 04:48:34;;;;;;;1.00;0.77;;;3.80;99.90;;;;;;5050295;28;20463;-49
2023/03/11 04:51:01;;;;;;;1.17;0.80;;;4.00;99.90;;;;;;5059122;28;20474;-52
2023/03/11 04:53:28;;;;;;;0.93;0.60;;;4.00;99.90;;;;;;5070925;28;20524;-50
2023/03/11 04:55:55;;;;;;;1.60;1.00;;;4.00;99.90;;;;;;5070216;28;20525;-50
2023/03/11 04:58:22;;;;;;;1.00;0.73;;;4.20;99.90;;;;;;5070321;28;20461;-50
2023/03/11 05:00:51;;;;;;;1.57;1.00;;;4.30;99.90;;;;;;5070258;28;20842;-50
2023/03/11 05:03:18;;;;;;;1.87;0.97;;;4.30;99.90;;;;;;5070832;28;20471;-50
2023/03/11 05:05:45;;;;;;;1.10;1.00;;;4.20;99.90;;;;;;5070646;28;20483;-50
2023/03/11 05:08:12;;;;;;;1.13;0.97;;;4.20;99.90;;;;;;5070663;28;20499;-51
2023/03/11 05:10:40;;;;;;;3.63;1.30;;;4.30;99.90;;;;;;5068607;28;20474;-49
2023/03/11 05:13:07;;;;;;;1.63;1.37;;;4.40;99.90;;;;;;5070352;28;20465;-50
2023/03/11 05:15:35;;;;;;;1.10;0.90;;;4.20;99.90;;;;;;5053012;28;20476;-52
2023/03/11 05:18:04;;;;;;;1.33;0.90;;;4.20;99.90;;;;;;5050240;28;20445;-49
2023/03/11 05:20:31;;;;;;;1.73;1.23;;;3.90;99.90;;;;;;5049401;28;20555;-52
2023/03/11 05:22:58;;;;;;;1.40;1.23;;;4.00;99.90;;;;;;5050313;28;20482;-49
2023/03/11 05:25:25;;;;;;;1.57;0.97;;;3.80;99.90;;;;;;5068998;28;20475;-50
2023/03/11 05:27:52;;;;;;;1.37;1.23;;;4.20;99.90;;;;;;5073608;28;20472;-50
2023/03/11 05:30:19;;;;;;;7.23;3.70;;;4.10;99.90;;;;;;5074121;28;20450;-51
2023/03/11 05:32:46;;;;;;;2.77;1.90;;;4.10;99.90;;;;;;5073903;28;20533;-49
2023/03/11 05:35:14;;;;;;;1.00;0.90;;;4.20;99.90;;;;;;5074159;28;20533;-49
2023/03/11 05:37:41;;;;;;;1.40;1.03;;;3.70;99.90;;;;;;5073922;28;20532;-51
2023/03/11 05:40:11;;;;;;;1.40;1.10;;;4.00;99.90;;;;;;5058122;28;20513;-49
2023/03/11 05:42:39;;;;;;;1.97;1.20;;;4.10;99.90;;;;;;5053801;28;20543;-50
2023/03/11 05:45:06;;;;;;;1.87;1.60;;;3.90;99.90;;;;;;5053776;28;20448;-52
2023/03/11 05:47:33;;;;;;;1.40;1.03;;;3.80;99.90;;;;;;5053892;28;20530;-49
2023/03/11 05:50:00;;;;;;;1.50;1.27;;;4.10;99.90;;;;;;5053545;28;20616;-50
2023/03/11 05:52:29;;;;;;;1.20;0.93;;;4.10;99.90;;;;;;5053854;28;20443;-49
2023/03/11 05:54:56;;;;;;;2.47;1.73;;;4.10;99.90;;;;;;5054725;28;20508;-50
2023/03/11 05:57:23;;;;;;;2.20;1.70;;;4.10;99.90;;;;;;5053212;28;20476;-50
2023/03/11 05:59:50;;;;;;;2.83;1.50;;;4.10;99.90;;;;;;5053896;28;20928;-49
2023/03/11 06:02:17;;;;;;;1.60;1.40;;;4.20;99.90;;;;;;5073272;28;20518;-50
2023/03/11 06:04:43;;;;;;;2.40;1.87;;;3.90;99.90;;;;;;5059551;28;20531;-49
2023/03/11 06:07:11;;;;;;;2.10;1.87;;;4.20;99.90;;;;;;5067258;28;20876;-49
2023/03/11 06:09:39;;;;;;;2.07;1.67;;;4.30;99.90;;;;;;5072963;28;20509;-50
2023/03/11 06:12:07;;;;;;;2.17;1.50;;;4.30;99.90;;;;;;5073332;28;21029;-50
2023/03/11 06:14:34;;;;;;;3.37;2.67;;;3.80;99.90;;;;;;5072883;28;20480;-50
2023/03/11 06:17:00;;;;;;;6.60;2.40;;;3.80;99.90;;;;;;5070623;28;20501;-50
2023/03/11 06:19:27;;;;;;;3.93;2.67;;;4.00;99.90;;;;;;5068503;28;20552;-51
2023/03/11 06:21:54;;;;;;;2.07;1.87;;;4.10;99.90;;;;;;5072850;28;20511;-50
2023/03/11 06:24:21;;;;;;;2.50;2.13;;;4.20;99.90;;;;;;5073283;28;20519;-49
2023/03/11 06:26:52;;;;;;;6.67;5.57;;;4.30;99.90;;;;;;5072268;28;20479;-50
2023/03/11 06:29:20;;;;;;;2.30;1.83;;;4.40;99.90;;;;;;5072505;28;20884;-51
2023/03/11 06:31:47;;;;;;;51.10;14.43;;;4.50;99.90;;;;;;5071734;28;21025;-50
2023/03/11 06:34:14;;;;;;;8.43;3.50;;;4.50;99.90;;;;;;5071320;28;20877;-50
2023/03/11 06:36:41;;;;;;;4.70;2.73;;;4.50;99.90;;;;;;5072809;28;20534;-49
2023/03/11 06:39:08;;;;;;;3.57;2.63;;;4.50;99.90;;;;;;5069940;28;20566;-50
2023/03/11 06:41:35;;;;;;;2.93;2.07;;;4.40;99.90;;;;;;5072497;28;20479;-49
2023/03/11 06:44:04;;;;;;;5.03;1.90;;;4.50;99.90;;;;;;5072354;28;20525;-49
2023/03/11 06:46:30;;;;;;;2.97;2.37;;;4.40;99.90;;;;;;5071543;28;20451;-51
2023/03/11 06:48:57;;;;;;;2.67;1.90;;;4.30;99.90;;;;;;5066911;28;20492;-50
2023/03/11 06:51:24;;;;;;;3.40;2.00;;;4.40;99.90;;;;;;5069417;28;21002;-49
2023/03/11 06:53:52;;;;;;;3.43;2.57;;;4.30;99.90;;;;;;5070669;28;20527;-49
2023/03/11 06:56:20;;;;;;;3.70;2.10;;;4.30;99.90;;;;;;5072238;28;20468;-50
2023/03/11 06:58:47;;;;;;;4.93;1.90;;;4.50;99.90;;;;;;5072124;28;20500;-50
2023/03/11 07:01:19;;;;;;;6.47;2.10;;;4.50;99.90;;;;;;5069304;28;20485;-50
2023/03/11 07:03:46;;;;;;;2.23;2.00;;;4.60;99.90;;;;;;5067321;28;20529;-51
2023/03/11 07:06:15;;;;;;;2.70;1.90;;;4.40;99.90;;;;;;5069248;28;20479;-52
2023/03/11 07:08:42;;;;;;;1.83;1.40;;;4.40;99.90;;;;;;5070635;28;20498;-52
2023/03/11 07:11:12;;;;;;;2.67;1.90;;;4.40;99.90;;;;;;5069796;28;20465;-49
2023/03/11 07:13:39;;;;;;;3.93;3.00;;;4.00;99.90;;;;;;5068637;28;20479;-50
2023/03/11 07:16:08;;;;;;;2.60;2.30;;;4.30;99.90;;;;;;5071125;28;20530;-52
2023/03/11 07:18:36;;;;;;;1.80;1.70;;;4.40;99.90;;;;;;5069991;28;20548;-49
2023/03/11 07:21:05;;;;;;;2.33;1.90;;;3.80;99.90;;;;;;5070449;28;20522;-51
2023/03/11 07:23:32;;;;;;;3.20;2.90;;;4.10;99.90;;;;;;5070637;28;20518;-52
2023/03/11 07:25:59;;;;;;;2.43;2.03;;;4.10;99.90;;;;;;5070849;28;20497;-50
2023/03/11 07:28:28;;;;;;;2.80;2.60;;;4.00;99.90;;;;;;5070505;28;20497;-49
2023/03/11 07:30:55;;;;;;;3.63;3.10;;;4.10;99.90;;;;;;5069867;28;20476;-50
2023/03/11 07:33:23;;;;;;;2.20;1.97;;;4.30;99.90;;;;;;5070431;28;20867;-49
2023/03/11 07:35:52;;;;;;;4.60;1.73;;;4.20;99.90;;;;;;5070315;28;20806;-50
2023/03/11 07:38:19;;;;;;;2.50;2.00;;;4.30;99.90;;;;;;5067809;28;21056;-50
2023/03/11 07:40:46;;;;;;;2.30;2.10;;;4.40;99.90;;;;;;5069678;28;20847;-50
2023/03/11 07:43:13;;;;;;;4.40;2.13;;;4.50;99.90;;;;;;5070032;28;20982;-51
2023/03/11 07:45:40;;;;;;;2.90;1.87;;;4.40;99.90;;;;;;5068951;28;20840;-51
2023/03/11 07:48:07;;;;;;;5.60;5.07;;;4.40;99.90;;;;;;5068741;28;21120;-50
2023/03/11 07:50:34;;;;;;;2.80;2.60;;;4.50;99.90;;;;;;5068233;28;20526;-50
2023/03/11 07:53:02;;;;;;;5.13;2.80;;;4.40;99.90;;;;;;5069972;28;20476;-49
2023/03/11 07:55:29;;;;;;;2.97;2.63;;;4.40;99.90;;;;;;5069139;28;20471;-50
2023/03/11 07:57:56;;;;;;;3.20;2.90;;;4.50;99.90;;;;;;5064957;28;20473;-50
2023/03/11 08:00:23;;;;;;;2.70;2.50;;;4.40;99.90;;;;;;5065541;28;20534;-54
2023/03/11 08:02:50;;;;;;;4.33;3.73;;;4.50;99.90;;;;;;5066787;28;21406;-53
2023/03/11 08:05:19;;;;;;;2.80;2.43;;;4.50;99.90;;;;;;5065748;28;20974;-52
2023/03/11 08:07:46;;;;;;;4.83;4.40;;;4.50;99.90;;;;;;5067496;28;20528;-52
2023/03/11 08:10:14;;;;;;;2.77;2.17;;;4.40;99.90;;;;;;5067479;28;20515;-49
2023/03/11 08:12:41;;;;;;;7.13;4.10;;;4.40;99.90;;;;;;5068276;28;21203;-50
2023/03/11 08:15:10;;;;;;;6.50;4.50;;;4.00;99.90;;;;;;5069615;28;20554;-50
2023/03/11 08:17:36;;;;;;;4.13;3.73;;;4.30;99.90;;;;;;5063666;28;20469;-50
2023/03/11 08:20:07;;;;;;;4.40;3.50;;;4.30;99.90;;;;;;5069478;28;20466;-51
2023/03/11 08:22:34;;;;;;;3.13;2.00;;;4.40;99.90;;;;;;5066191;28;20447;-50
2023/03/11 08:25:01;;;;;;;2.87;2.50;;;4.50;99.90;;;;;;5057645;28;20567;-53
2023/03/11 08:27:29;;;;;;;4.10;2.50;;;4.50;99.90;;;;;;5056446;28;20508;-49
2023/03/11 08:29:56;;;;;;;8.73;3.90;;;4.50;99.90;;;;;;5056459;28;20549;-50
2023/03/11 08:32:23;;;;;;;3.07;2.77;;;4.50;99.90;;;;;;5062883;28;20558;-48
2023/03/11 08:34:50;;;;;;;2.60;2.20;;;4.30;99.90;;;;;;5061602;28;20485;-50
2023/03/11 08:37:17;;;;;;;2.57;2.13;;;4.30;99.90;;;;;;5062812;28;20646;-51
2023/03/11 08:39:44;;;;;;;2.90;2.10;;;4.20;99.90;;;;;;5060635;28;21031;-52
2023/03/11 08:42:11;;;;;;;2.13;1.83;;;4.10;99.90;;;;;;5066152;28;20589;-49
2023/03/11 08:44:39;;;;;;;2.33;1.80;;;4.20;99.90;;;;;;5064267;28;22524;-50
2023/03/11 08:47:06;;;;;;;2.80;1.87;;;4.50;99.90;;;;;;5063887;28;20478;-53
2023/03/11 08:49:33;;;;;;;1.93;1.60;;;4.40;99.90;;;;;;5055905;28;20492;-50
2023/03/11 08:52:01;;;;;;;2.73;1.90;;;4.50;99.90;;;;;;5059152;28;20938;-50
2023/03/11 08:54:28;;;;;;;4.23;3.23;;;4.50;99.90;;;;;;5054750;28;20532;-50
2023/03/11 08:56:55;;;;;;;2.87;2.57;;;4.60;99.90;;;;;;5069205;28;20516;-50
2023/03/11 08:59:22;;;;;;;5.90;4.67;;;4.60;99.90;;;;;;5068074;28;20491;-52
2023/03/11 09:01:50;;;;;;;4.10;2.60;;;4.60;99.90;;;;;;5068912;28;20980;-53
2023/03/11 09:04:17;;;;;;;7.10;3.90;;;4.50;99.90;;;;;;5067372;28;20474;-53
2023/03/11 09:06:44;;;;;;;5.73;2.07;;;4.50;99.90;;;;;;5071683;28;20524;-51
2023/03/11 09:09:11;;;;;;;2.00;1.80;;;4.50;99.90;;;;;;5068533;28;20493;-50
2023/03/11 09:11:39;;;;;;;6.77;5.07;;;4.50;99.90;;;;;;5070167;28;20482;-50
2023/03/11 09:14:06;;;;;;;3.03;2.73;;;4.40;99.90;;;;;;5053518;28;20546;-51
2023/03/11 09:16:33;;;;;;;2.87;2.67;;;4.30;99.90;;;;;;5054273;28;20448;-51
2023/03/11 09:19:05;;;;;;;3.17;2.87;;;4.50;99.90;;;;;;5053297;28;20925;-52
2023/03/11 09:21:32;;;;;;;1.57;1.47;;;4.50;99.90;;;;;;5067883;28;20474;-49
2023/03/11 09:23:59;;;;;;;2.00;1.60;;;4.40;99.90;;;;;;5070017;28;20526;-50
2023/03/11 09:26:26;;;;;;;1.60;1.50;;;4.50;99.90;;;;;;5068408;28;20450;-52
2023/03/11 09:28:53;;;;;;;2.27;1.40;;;4.50;99.90;;;;;;5066606;28;21055;-49
2023/03/11 09:31:20;;;;;;;1.47;1.37;;;4.50;99.90;;;;;;5066962;28;20657;-52
2023/03/11 09:33:48;;;;;;;1.80;1.40;;;4.70;99.90;;;;;;5068528;28;20458;-49
2023/03/11 09:36:18;;;;;;;1.57;1.47;;;4.40;99.90;;;;;;5069065;28;20816;-51
2023/03/11 09:38:46;;;;;;;1.60;1.50;;;4.60;99.90;;;;;;5069744;28;20504;-49
2023/03/11 09:41:23;;;;;;;1.80;1.33;;;4.60;99.90;;;;;;5068110;28;20571;-50
2023/03/11 09:44:04;;;;;;;2.10;1.73;;;4.80;99.90;;;;;;5068118;28;20460;-51
2023/03/11 09:47:02;;;;;;;1.60;1.23;;;4.80;99.90;;;;;;5058678;28;20546;-50
2023/03/11 09:49:46;;;;;;;2.17;1.60;;;4.90;99.90;;;;;;5044674;28;20480;-52
2023/03/11 09:52:16;;;;;;;1.70;1.40;;;4.90;99.90;;;;;;5063736;28;20891;-50
2023/03/11 09:54:46;;;;;;;1.67;1.20;;;4.80;99.90;;;;;;5057419;28;20518;-52
2023/03/11 09:57:18;;;;;;;1.50;1.33;;;4.70;99.90;;;;;;5055698;28;20553;-53
2023/03/11 09:59:46;;;;;;;1.70;1.40;;;4.90;99.90;;;;;;5064134;28;20560;-52
2023/03/11 10:02:17;;;;;;;1.73;1.47;;;4.90;99.90;;;;;;5060653;28;20506;-50
2023/03/11 10:04:53;;;;;;;1.30;1.20;;;5.00;99.90;;;;;;5069529;28;20476;-52
2023/03/11 10:07:27;;;;;;;1.40;1.30;;;5.10;99.90;;;;;;5061382;28;20442;-51
2023/03/11 10:09:57;;;;;;;7.70;5.10;;;5.00;99.90;;;;;;5049735;28;20518;-50
2023/03/11 10:12:35;;;;;;;2.53;1.50;;;4.80;99.90;;;;;;5050216;28;20521;-50
2023/03/11 10:15:14;;;;;;;1.80;1.30;;;5.00;99.90;;;;;;5053120;28;20477;-52
2023/03/11 10:17:53;;;;;;;1.60;1.50;;;4.70;99.90;;;;;;5065606;28;20480;-53
2023/03/11 10:20:24;;;;;;;1.40;1.13;;;5.00;99.90;;;;;;5068343;28;20546;-52
2023/03/11 10:23:05;;;;;;;3.67;1.43;;;5.20;99.90;;;;;;5069321;28;20838;-52
2023/03/11 10:25:42;;;;;;;1.20;0.93;;;5.10;99.90;;;;;;5063944;28;20449;-52
2023/03/11 10:28:13;;;;;;;1.90;1.20;;;5.30;99.90;;;;;;5069221;28;20475;-52
2023/03/11 10:30:45;;;;;;;3.40;1.97;;;5.10;99.90;;;;;;5069432;28;20456;-50
2023/03/11 10:33:21;;;;;;;3.00;1.53;;;5.20;99.90;;;;;;5062402;28;20448;-50
2023/03/11 10:35:52;;;;;;;2.27;1.80;;;5.30;99.90;;;;;;5050224;28;20446;-52
2023/03/11 10:38:24;;;;;;;1.90;1.23;;;5.40;99.90;;;;;;5061650;28;20475;-51
2023/03/11 10:40:54;;;;;;;1.43;1.13;;;5.30;99.90;;;;;;5055829;28;20814;-49
2023/03/11 10:43:28;;;;;;;1.40;1.30;;;5.40;99.90;;;;;;5049294;28;20552;-49
2023/03/11 10:45:55;;;;;;;1.80;1.47;;;5.10;99.90;;;;;;5056204;28;20447;-51
2023/03/11 10:48:25;;;;;;;1.47;1.37;;;5.40;99.90;;;;;;5055835;28;20469;-52
2023/03/11 10:51:00;;;;;;;4.33;1.33;;;5.40;99.90;;;;;;5069281;28;20945;-52
2023/03/11 10:53:30;;;;;;;1.40;1.00;;;5.60;99.90;;;;;;5069972;28;20542;-51
2023/03/11 10:55:59;;;;;;;1.40;1.20;;;5.70;99.90;;;;;;5068563;28;20874;-50
2023/03/11 10:58:28;;;;;;;1.60;1.30;;;5.60;99.90;;;;;;5069300;28;20457;-50
2023/03/11 11:01:03;;;;;;;1.40;1.23;;;5.70;99.90;;;;;;5062892;28;20504;-50
2023/03/11 11:03:32;;;;;;;1.33;1.10;;;5.70;99.90;;;;;;5049489;28;21054;-50
2023/03/11 11:06:02;;;;;;;2.20;1.67;;;5.70;99.90;;;;;;5049830;28;20538;-51
2023/03/11 11:08:31;;;;;;;2.23;1.33;;;5.70;99.90;;;;;;5049477;28;20501;-52
2023/03/11 11:10:59;;;;;;;1.60;1.50;;;5.90;99.90;;;;;;5048288;28;20840;-50
2023/03/11 11:13:29;;;;;;;1.30;1.07;;;6.10;99.90;;;;;;5049062;28;20457;-51
2023/03/11 11:15:58;;;;;;;1.90;1.30;;;6.10;99.90;;;;;;5063928;28;20863;-52
2023/03/11 11:18:28;;;;;;;1.27;1.00;;;6.20;99.90;;;;;;5067617;28;20545;-52
2023/03/11 11:20:59;;;;;;;2.17;1.27;;;6.30;99.90;;;;;;5068506;28;20535;-51
2023/03/11 11:23:32;;;;;;;1.80;1.43;;;6.50;99.90;;;;;;5070092;28;20942;-50
2023/03/11 11:26:02;;;;;;;1.37;1.27;;;6.60;99.90;;;;;;5068786;28;20532;-48
2023/03/11 11:28:29;;;;;;;1.37;1.10;;;6.40;99.90;;;;;;5068186;28;21042;-50
2023/03/11 11:30:58;;;;;;;2.80;1.37;;;6.70;99.90;;;;;;5069160;28;20523;-51
2023/03/11 11:33:28;;;;;;;1.57;1.03;;;6.70;99.90;;;;;;5069257;28;20535;-52
2023/03/11 11:35:57;;;;;;;1.50;1.10;;;6.70;99.90;;;;;;5068739;28;20527;-51
2023/03/11 11:38:27;;;;;;;1.40;1.07;;;6.90;99.90;;;;;;5068284;28;20457;-49
2023/03/11 11:40:57;;;;;;;1.20;0.90;;;6.90;99.90;;;;;;5068553;28;20543;-50
2023/03/11 11:43:35;;;;;;;1.30;0.80;;;7.00;99.90;;;;;;5058841;28;20457;-50
2023/03/11 11:46:07;;;;;;;1.27;0.73;;;6.90;99.90;;;;;;5048676;28;21159;-50
2023/03/11 11:48:44;;;;;;;3.00;1.43;;;7.00;99.90;;;;;;5062850;28;20468;-50
2023/03/11 11:51:21;;;;;;;1.43;1.03;;;7.10;99.90;;;;;;5067779;28;20531;-51
2023/03/11 11:53:56;;;;;;;1.10;0.90;;;7.00;99.90;;;;;;5068224;28;21010;-50
2023/03/11 11:56:25;;;;;;;1.47;1.03;;;7.10;99.90;;;;;;5067693;28;20762;-50
2023/03/11 11:58:53;;;;;;;1.10;0.80;;;6.90;99.90;;;;;;5067304;28;20887;-50
2023/03/11 12:01:30;;;;;;;1.17;0.90;;;7.00;99.90;;;;;;5068078;28;20488;-50
2023/03/11 12:04:31;;;;;;;1.40;0.97;;;7.20;99.90;;;;;;5068643;28;20954;-50
2023/03/11 12:07:13;;;;;;;1.63;1.20;;;7.10;99.90;;;;;;5040373;28;20477;-51
2023/03/11 12:09:50;;;;;;;1.30;1.20;;;7.30;99.90;;;;;;5048262;28;20905;-52
2023/03/11 12:12:26;;;;;;;1.50;1.20;;;7.40;99.90;;;;;;5048117;28;20528;-51
2023/03/11 12:15:01;;;;;;;1.70;1.60;;;7.40;99.90;;;;;;5048315;28;21010;-51
2023/03/11 12:17:31;;;;;;;1.40;1.30;;;7.30;99.90;;;;;;5053543;28;20448;-50
2023/03/11 12:20:03;;;;;;;1.20;1.10;;;7.40;99.90;;;;;;5067297;28;20493;-51
2023/03/11 12:23:13;;;;;;;1.70;1.17;;;7.40;99.90;;;;;;5068061;28;20487;-50
2023/03/11 12:25:44;;;;;;;1.13;0.93;;;7.30;99.90;;;;;;4971780;28;20477;-54
2023/03/11 12:28:23;;;;;;;1.30;1.17;;;7.20;99.90;;;;;;4978871;28;20572;-51
2023/03/11 12:30:53;;;;;;;1.20;1.10;;;6.90;99.90;;;;;;5016471;28;20529;-50
2023/03/11 12:33:30;;;;;;;1.13;0.90;;;6.50;99.90;;;;;;5048272;28;20888;-49
2023/03/11 12:35:58;;;;;;;1.30;1.20;;;6.50;99.90;;;;;;5047292;28;21014;-50
2023/03/11 12:38:32;;;;;;;1.30;1.10;;;6.60;99.90;;;;;;5064809;28;20496;-52
2023/03/11 12:41:28;;;;;;;1.60;1.00;;;6.80;99.90;;;;;;5065644;28;20493;-50
2023/03/11 12:44:19;;;;;;;1.50;1.33;;;7.00;99.90;;;;;;5067976;28;20445;-49
2023/03/11 12:47:24;;;;;;;2.00;1.10;;;6.70;99.90;;;;;;5067648;28;20447;-50
2023/03/11 12:49:53;;;;;;;1.40;1.10;;;6.90;99.90;;;;;;5059265;28;20441;-50
2023/03/11 12:52:26;;;;;;;1.50;1.23;;;6.80;99.90;;;;;;5067638;28;20437;-53
2023/03/11 12:55:28;;;;;;;1.87;1.43;;;6.90;99.90;;;;;;5059791;28;20542;-51
2023/03/11 12:58:04;;;;;;;2.40;1.20;;;6.80;99.90;;;;;;5137444;22;21091;-47
2023/03/11 13:00:52;;;;;;;2.90;0.90;;;6.60;99.90;;;;;;5100490;28;20453;-48
2023/03/11 13:04:04;;;;;;;1.40;1.00;;;6.50;99.90;;;;;;5108172;28;20506;-47
2023/03/11 13:06:53;;;;;;;1.30;1.07;;;6.90;99.90;;;;;;5082731;28;20474;-47
2023/03/11 13:09:21;;;;;;;1.30;1.10;;;6.70;99.90;;;;;;5106134;28;20455;-49
2023/03/11 13:11:50;;;;;;;1.53;1.30;;;6.20;99.90;;;;;;5108118;28;20474;-47